RJCW

Details ICAO RJCW (WKJ)
Name WAKKANAI
Region Japan
Timezone Asia/Tokyo (UTC+9.0)
Plans Departing 29
Arriving 21
Stats Elevation 30 ft / 9 m (AMSL)
Location 45.404111° 141.800926°
Runways 1
Magnetic Variation 10.148° W
Sunrise 2017-12-15 22:07:32 UTC / 2017-12-16 07:07:32 Local
Sunset 2017-12-16 06:51:43 UTC / 2017-12-16 15:51:43 Local
Advertisement - Login to hide

Runways

ID Width Length Bearing (true) Bearing (mag) Surface Threshold Offset Overrun Length
08 150 ft / 46 m 6,548 ft / 1,996 m 68.83° 78.98° Asphalt 0 ft / 0 m 200 ft / 61 m
26 150 ft / 46 m 6,548 ft / 1,996 m 248.85° 259.00° Asphalt 0 ft / 0 m 200 ft / 61 m

Approach Navaids

Runway Type Ident Frequency Range Bearing (true) Bearing (mag) Slope Elevation
08 Localiser IWK 111.10 MHz 18 nm / 33 km 68.85° 79.00° - 30 ft / 9 m (AMSL)
08 Glidescope IWK 111.10 MHz 10 nm / 19 km 68.84° 78.99° 3.00° 54 ft / 16 m (AMSL)

Map

Weather


0- 5 10 15 20 25 30 35+ Temperature / ° C

Clouds and Precipitation
Forecast for 2017-12-16 06:00 UTC. Updated 2 hours ago

Ground ~20,000 ft ~40,000 ft Winds

METAR

RJCW 160500Z 26013KT 9999 -SHSN FEW010 SCT040 BKN060 M03/M06 Q1004

TAF

Not found

Frequencies

Tower 126.20 MHz RDO
Tower 118.30 MHz RDO
Warning: Do not use this data for real-world aviation or navigation. No guarantee of current accuracy is given.